Tel Aviv-Yafo, Israel
Current Conditions -  °F | °C
As of 9:50 AM on Monday 24 Nov 2014 (Local Time) from LLSD Reporting Station
Broken Clouds Broken Clouds  
Wind Chill: 61°   Ceiling: 3500
Heat Index: 61°   Visibility: 6mi
Dew Point: 55°   Wind: 3mph
Humidity: 82%   Direction: NA
Pressure: 29.91"   Gusts: NA
Location:  32.07°N, 34.77°E
Report Text: LLSD 240650Z VRB03KT 9999 SCT025 BKN035 16/13 Q1013
Loading
Personal Weather Stations






























Interactive Weather Map New forecast layout! Learn more

10-Day Weather Forecast

Advertisements
Track Severe Weather on mobile